createdAt,value
2019-01-02T00:00:40.686Z,1027.93
2019-01-02T00:01:40.769Z,1027.96
2019-01-02T00:02:40.654Z,1027.90
2019-01-02T00:03:40.674Z,1028.06
2019-01-02T00:04:40.640Z,1028.09
2019-01-02T00:05:40.623Z,1028.01
2019-01-02T00:06:40.613Z,1028.04
2019-01-02T00:07:40.628Z,1028.08
2019-01-02T00:08:40.589Z,1028.04
2019-01-02T00:09:40.584Z,1028.12
2019-01-02T00:10:40.574Z,1028.08
2019-01-02T00:11:40.565Z,1028.10
2019-01-02T00:12:40.553Z,1028.00
2019-01-02T00:13:40.559Z,1028.11
2019-01-02T00:14:40.688Z,1028.06
2019-01-02T00:15:40.512Z,1028.06
2019-01-02T00:16:40.499Z,1028.11
2019-01-02T00:17:40.615Z,1028.08
2019-01-02T00:18:40.485Z,1028.09
2019-01-02T00:19:40.501Z,1028.14
2019-01-02T00:20:40.453Z,1028.15
2019-01-02T00:21:40.489Z,1028.15
2019-01-02T00:22:40.445Z,1028.15
2019-01-02T00:23:40.447Z,1028.21
2019-01-02T00:24:40.442Z,1028.14
2019-01-02T00:25:40.406Z,1028.21
2019-01-02T00:26:40.390Z,1028.09
2019-01-02T00:27:40.439Z,1028.23
2019-01-02T00:28:40.370Z,1028.09
2019-01-02T00:29:40.355Z,1028.06
2019-01-02T00:30:40.387Z,1028.14
2019-01-02T00:31:40.339Z,1028.04
2019-01-02T00:32:40.352Z,1028.08
2019-01-02T00:33:40.325Z,1028.11
2019-01-02T00:34:40.321Z,1028.18
2019-01-02T00:35:40.321Z,1028.18
2019-01-02T00:36:40.314Z,1028.18
2019-01-02T00:37:40.272Z,1028.31
2019-01-02T00:38:40.412Z,1028.22
2019-01-02T00:39:40.249Z,1028.23
2019-01-02T00:40:40.262Z,1028.24
2019-01-02T00:41:40.250Z,1028.13
2019-01-02T00:42:40.216Z,1028.12
2019-01-02T00:43:40.208Z,1028.13
2019-01-02T00:44:40.201Z,1028.17
2019-01-02T00:45:40.234Z,1028.12
2019-01-02T00:46:40.180Z,1028.13
2019-01-02T00:47:40.177Z,1028.11
2019-01-02T00:48:40.157Z,1028.18
2019-01-02T00:49:40.142Z,1028.11
2019-01-02T00:50:40.125Z,1028.25
2019-01-02T00:51:40.154Z,1028.20
2019-01-02T00:52:40.112Z,1028.19
2019-01-02T00:53:40.099Z,1028.18
2019-01-02T00:54:40.224Z,1028.21
2019-01-02T00:55:40.186Z,1028.31
2019-01-02T00:56:40.071Z,1028.34
2019-01-02T00:57:40.117Z,1028.27
2019-01-02T00:58:40.055Z,1028.29
2019-01-02T00:59:40.071Z,1028.26
2019-01-02T01:00:40.025Z,1028.27
2019-01-02T01:01:40.033Z,1028.25
2019-01-02T01:02:40.008Z,1028.26
2019-01-02T01:03:39.992Z,1028.25
2019-01-02T01:04:39.991Z,1028.22
2019-01-02T01:05:39.999Z,1028.25
2019-01-02T01:06:39.956Z,1028.31
2019-01-02T01:07:39.943Z,1028.19
2019-01-02T01:08:39.966Z,1028.24
2019-01-02T01:09:39.924Z,1028.22
2019-01-02T01:10:40.079Z,1028.20
2019-01-02T01:11:39.917Z,1028.34
2019-01-02T01:12:39.893Z,1028.29
2019-01-02T01:13:39.886Z,1028.25
2019-01-02T01:14:39.930Z,1028.37
2019-01-02T01:15:39.859Z,1028.33
2019-01-02T01:16:39.858Z,1028.34
2019-01-02T01:17:39.849Z,1028.30
2019-01-02T01:18:40.625Z,1028.20
2019-01-02T01:19:39.836Z,1028.30
2019-01-02T01:20:39.851Z,1028.23
2019-01-02T01:21:39.836Z,1028.24
2019-01-02T01:22:39.776Z,1028.41
2019-01-02T01:23:39.786Z,1028.24
2019-01-02T01:24:39.759Z,1028.35
2019-01-02T01:25:39.752Z,1028.38
2019-01-02T01:26:39.776Z,1028.25
2019-01-02T01:27:39.732Z,1028.24
2019-01-02T01:28:39.728Z,1028.24
2019-01-02T01:29:39.704Z,1028.21
2019-01-02T01:30:39.694Z,1028.22
2019-01-02T01:31:39.687Z,1028.27
2019-01-02T01:32:39.698Z,1028.27
2019-01-02T01:33:39.660Z,1028.32
2019-01-02T01:34:39.812Z,1028.27
2019-01-02T01:35:39.634Z,1028.31
2019-01-02T01:36:39.692Z,1028.35
2019-01-02T01:37:39.675Z,1028.30
2019-01-02T01:38:39.612Z,1028.44
2019-01-02T01:39:39.601Z,1028.43
2019-01-02T01:40:39.592Z,1028.40
2019-01-02T01:41:39.579Z,1028.37
2019-01-02T01:42:39.587Z,1028.35
2019-01-02T01:43:39.592Z,1028.40
2019-01-02T01:44:39.561Z,1028.35
2019-01-02T01:45:39.564Z,1028.35
2019-01-02T01:46:39.517Z,1028.38
2019-01-02T01:47:39.532Z,1028.46
2019-01-02T01:48:39.523Z,1028.45
2019-01-02T01:49:39.481Z,1028.46
2019-01-02T01:50:39.654Z,1028.50
2019-01-02T01:51:39.462Z,1028.49
2019-01-02T01:52:39.496Z,1028.50
2019-01-02T01:53:39.485Z,1028.59
2019-01-02T01:54:39.431Z,1028.52
2019-01-02T01:55:39.445Z,1028.61
2019-01-02T01:56:39.413Z,1028.56
2019-01-02T01:57:39.402Z,1028.51
2019-01-02T01:58:39.389Z,1028.57
2019-01-02T01:59:39.398Z,1028.54
2019-01-02T02:00:39.388Z,1028.53
2019-01-02T02:01:39.359Z,1028.48
2019-01-02T02:02:39.384Z,1028.57
2019-01-02T02:03:39.333Z,1028.55
2019-01-02T02:04:39.331Z,1028.57
2019-01-02T02:05:39.317Z,1028.60
2019-01-02T02:06:39.328Z,1028.62
2019-01-02T02:07:39.335Z,1028.60
2019-01-02T02:08:39.279Z,1028.63
2019-01-02T02:09:39.282Z,1028.60
2019-01-02T02:10:39.271Z,1028.63
2019-01-02T02:11:39.249Z,1028.64
2019-01-02T02:12:39.261Z,1028.61
2019-01-02T02:13:39.235Z,1028.63
2019-01-02T02:14:39.311Z,1028.68
2019-01-02T02:15:39.241Z,1028.72
2019-01-02T02:16:39.195Z,1028.73
2019-01-02T02:17:39.244Z,1028.75
2019-01-02T02:18:39.189Z,1028.77
2019-01-02T02:19:39.165Z,1028.76
2019-01-02T02:20:39.174Z,1028.78
2019-01-02T02:21:39.175Z,1028.80
2019-01-02T02:22:39.131Z,1028.79
2019-01-02T02:23:39.117Z,1028.84
2019-01-02T02:24:39.139Z,1028.86
2019-01-02T02:25:39.116Z,1028.85
2019-01-02T02:26:39.097Z,1028.75
2019-01-02T02:27:39.075Z,1028.77
2019-01-02T02:28:39.064Z,1028.72
2019-01-02T02:29:39.081Z,1028.70
2019-01-02T02:30:39.142Z,1028.72
2019-01-02T02:31:39.033Z,1028.80
2019-01-02T02:32:39.028Z,1028.90
2019-01-02T02:33:39.053Z,1028.85
2019-01-02T02:34:39.002Z,1028.88
2019-01-02T02:35:38.989Z,1028.84
2019-01-02T02:36:38.989Z,1028.93
2019-01-02T02:37:38.968Z,1028.81
2019-01-02T02:38:38.954Z,1028.88
2019-01-02T02:39:39.004Z,1028.81
2019-01-02T02:40:38.941Z,1028.90
2019-01-02T02:41:38.934Z,1028.85
2019-01-02T02:42:38.923Z,1028.88
2019-01-02T02:43:38.898Z,1028.78
2019-01-02T02:44:38.920Z,1028.75
2019-01-02T02:45:38.922Z,1028.83
2019-01-02T02:46:38.969Z,1028.76
2019-01-02T02:47:38.859Z,1028.77
2019-01-02T02:48:38.840Z,1028.75
2019-01-02T02:49:38.838Z,1028.76
2019-01-02T02:50:38.848Z,1028.76
2019-01-02T02:51:38.817Z,1028.78
2019-01-02T02:52:38.809Z,1028.78
2019-01-02T02:53:38.788Z,1028.79
2019-01-02T02:54:38.840Z,1028.79
2019-01-02T02:55:38.779Z,1028.78
2019-01-02T02:56:38.783Z,1028.76
2019-01-02T02:57:38.747Z,1028.72
2019-01-02T02:58:38.739Z,1028.71
2019-01-02T02:59:38.720Z,1028.66
2019-01-02T03:00:38.709Z,1028.64
2019-01-02T03:01:38.752Z,1028.68
2019-01-02T03:02:38.694Z,1028.65
2019-01-02T03:03:38.693Z,1028.69
2019-01-02T03:04:38.672Z,1028.68
2019-01-02T03:05:38.654Z,1028.72
2019-01-02T03:06:38.659Z,1028.67
2019-01-02T03:07:38.683Z,1028.71
2019-01-02T03:08:38.631Z,1028.69
2019-01-02T03:09:38.612Z,1028.72
2019-01-02T03:10:38.762Z,1028.69
2019-01-02T03:11:38.598Z,1028.73
2019-01-02T03:12:38.600Z,1028.71
2019-01-02T03:13:38.699Z,1028.77
2019-01-02T03:14:38.568Z,1028.73
2019-01-02T03:15:38.560Z,1028.82
2019-01-02T03:16:38.542Z,1028.72
2019-01-02T03:17:38.532Z,1028.76
2019-01-02T03:18:38.541Z,1028.69
2019-01-02T03:19:38.512Z,1028.78
2019-01-02T03:20:38.503Z,1028.75
2019-01-02T03:21:38.483Z,1028.86
2019-01-02T03:22:38.502Z,1028.82
2019-01-02T03:23:38.471Z,1028.79
2019-01-02T03:24:38.480Z,1028.84
2019-01-02T03:25:38.440Z,1028.77
2019-01-02T03:26:38.434Z,1028.79
2019-01-02T03:27:38.451Z,1028.77
2019-01-02T03:28:38.416Z,1028.88
2019-01-02T03:29:38.426Z,1028.91
2019-01-02T03:30:38.387Z,1028.90
2019-01-02T03:31:38.417Z,1028.83
2019-01-02T03:32:38.406Z,1028.87
2019-01-02T03:33:38.415Z,1028.83
2019-01-02T03:34:38.344Z,1028.81
2019-01-02T03:35:38.344Z,1028.96
2019-01-02T03:36:38.332Z,1028.91
2019-01-02T03:37:38.330Z,1028.87
2019-01-02T03:38:38.299Z,1028.97
2019-01-02T03:39:38.293Z,1028.99
2019-01-02T03:40:38.287Z,1029.07
2019-01-02T03:41:38.272Z,1029.04
2019-01-02T03:42:38.293Z,1029.03
2019-01-02T03:43:38.240Z,1028.95
2019-01-02T03:44:38.234Z,1029.01
2019-01-02T03:45:38.244Z,1028.92
2019-01-02T03:46:38.232Z,1028.92
2019-01-02T03:47:38.199Z,1029.01
2019-01-02T03:48:38.193Z,1028.97
2019-01-02T03:49:38.214Z,1029.01
2019-01-02T03:50:38.172Z,1029.04
2019-01-02T03:51:38.164Z,1028.99
2019-01-02T03:52:38.148Z,1029.04
2019-01-02T03:53:38.286Z,1029.06
2019-01-02T03:54:38.123Z,1029.04
2019-01-02T03:55:38.155Z,1029.17
2019-01-02T03:56:38.114Z,1029.01
2019-01-02T03:57:38.108Z,1029.06
2019-01-02T03:58:38.110Z,1028.99
2019-01-02T03:59:38.080Z,1029.04
2019-01-02T04:00:38.058Z,1029.01
2019-01-02T04:01:38.090Z,1029.02
2019-01-02T04:02:38.034Z,1029.00
2019-01-02T04:03:38.064Z,1029.02
2019-01-02T04:04:38.015Z,1029.04
2019-01-02T04:05:38.020Z,1028.95
2019-01-02T04:06:38.017Z,1028.95
2019-01-02T04:07:37.987Z,1029.02
2019-01-02T04:08:38.005Z,1028.90
2019-01-02T04:09:38.165Z,1029.03
2019-01-02T04:10:37.972Z,1029.04
2019-01-02T04:11:37.936Z,1028.92
2019-01-02T04:12:37.949Z,1029.03
2019-01-02T04:13:37.960Z,1028.86
2019-01-02T04:14:37.908Z,1029.00
2019-01-02T04:15:37.944Z,1028.95
2019-01-02T04:16:37.914Z,1028.98
2019-01-02T04:17:37.901Z,1029.01
2019-01-02T04:18:37.862Z,1029.04
2019-01-02T04:19:37.863Z,1029.09
2019-01-02T04:20:37.848Z,1029.02
2019-01-02T04:21:37.878Z,1029.07
2019-01-02T04:22:37.835Z,1029.01
2019-01-02T04:23:37.866Z,1029.10
2019-01-02T04:24:37.802Z,1029.06
2019-01-02T04:25:37.876Z,1029.03
2019-01-02T04:26:37.775Z,1029.10
2019-01-02T04:27:37.769Z,1029.08
2019-01-02T04:28:37.786Z,1029.10
2019-01-02T04:29:37.743Z,1029.01
2019-01-02T04:30:37.733Z,1029.05
2019-01-02T04:31:37.723Z,1029.03
2019-01-02T04:32:37.717Z,1029.05
2019-01-02T04:33:37.813Z,1029.15
2019-01-02T04:34:37.709Z,1029.04
2019-01-02T04:35:37.711Z,1029.05
2019-01-02T04:36:37.695Z,1029.06
2019-01-02T04:37:37.663Z,1029.05
2019-01-02T04:38:37.676Z,1028.99
2019-01-02T04:39:37.636Z,1029.06
2019-01-02T04:40:37.630Z,1029.07
2019-01-02T04:41:37.655Z,1029.11
2019-01-02T04:42:37.604Z,1029.04
2019-01-02T04:43:37.594Z,1029.12
2019-01-02T04:44:37.582Z,1029.15
2019-01-02T04:45:37.578Z,1029.05
2019-01-02T04:46:37.567Z,1029.13
2019-01-02T04:47:37.578Z,1029.09
2019-01-02T04:48:37.553Z,1029.05
2019-01-02T04:49:37.715Z,1029.08
2019-01-02T04:50:37.522Z,1029.02
2019-01-02T04:51:37.510Z,1029.03
2019-01-02T04:52:37.502Z,1029.07
2019-01-02T04:53:37.496Z,1029.03
2019-01-02T04:54:37.526Z,1029.02
2019-01-02T04:55:37.535Z,1028.99
2019-01-02T04:56:37.472Z,1029.02
2019-01-02T04:57:37.437Z,1029.03
2019-01-02T04:58:37.457Z,1028.98
2019-01-02T04:59:37.431Z,1029.08
2019-01-02T05:00:37.445Z,1029.07
2019-01-02T05:01:37.405Z,1029.01
2019-01-02T05:02:37.393Z,1029.05
2019-01-02T05:03:37.377Z,1029.07
2019-01-02T05:04:37.366Z,1029.04
2019-01-02T05:05:37.474Z,1029.14
2019-01-02T05:06:37.385Z,1029.12
2019-01-02T05:07:37.341Z,1029.11
2019-01-02T05:08:37.329Z,1029.22
2019-01-02T05:09:37.333Z,1029.17
2019-01-02T05:10:37.299Z,1029.16
2019-01-02T05:11:37.289Z,1029.20
2019-01-02T05:12:37.309Z,1029.25
2019-01-02T05:13:37.268Z,1029.24
2019-01-02T05:14:37.263Z,1029.36
2019-01-02T05:15:37.268Z,1029.27
2019-01-02T05:16:37.261Z,1029.22
2019-01-02T05:17:37.234Z,1029.28
2019-01-02T05:18:37.244Z,1029.26
2019-01-02T05:19:37.224Z,1029.28
2019-01-02T05:20:37.210Z,1029.19
2019-01-02T05:21:37.191Z,1029.24
2019-01-02T05:22:37.198Z,1029.19
2019-01-02T05:23:37.198Z,1029.20
2019-01-02T05:24:37.151Z,1029.26
2019-01-02T05:25:37.168Z,1029.25
2019-01-02T05:26:37.127Z,1029.31
2019-01-02T05:27:37.155Z,1029.29
2019-01-02T05:28:37.143Z,1029.38
2019-01-02T05:29:37.299Z,1029.30
2019-01-02T05:30:37.116Z,1029.29
2019-01-02T05:31:37.064Z,1029.33
2019-01-02T05:32:37.054Z,1029.28
2019-01-02T05:33:37.074Z,1029.45
2019-01-02T05:34:37.049Z,1029.32
2019-01-02T05:35:37.059Z,1029.34
2019-01-02T05:36:37.012Z,1029.42
2019-01-02T05:37:37.040Z,1029.31
2019-01-02T05:38:36.992Z,1029.35
2019-01-02T05:39:36.994Z,1029.30
2019-01-02T05:40:36.979Z,1029.36
2019-01-02T05:41:36.982Z,1029.40
2019-01-02T05:42:37.002Z,1029.38
2019-01-02T05:43:37.003Z,1029.44
2019-01-02T05:44:36.949Z,1029.42
2019-01-02T05:45:37.070Z,1029.43
2019-01-02T05:46:36.932Z,1029.46
2019-01-02T05:47:36.916Z,1029.43
2019-01-02T05:48:36.994Z,1029.47
2019-01-02T05:49:36.895Z,1029.52
2019-01-02T05:50:36.872Z,1029.37
2019-01-02T05:51:36.860Z,1029.41
2019-01-02T05:52:36.875Z,1029.43
2019-01-02T05:53:36.867Z,1029.44
2019-01-02T05:54:36.824Z,1029.43
2019-01-02T05:55:36.815Z,1029.46
2019-01-02T05:56:36.803Z,1029.51
2019-01-02T05:57:36.805Z,1029.50
2019-01-02T05:58:36.786Z,1029.48
2019-01-02T05:59:36.806Z,1029.52
2019-01-02T06:00:39.825Z,1029.45
2019-01-02T06:01:36.754Z,1029.44
2019-01-02T06:02:36.751Z,1029.51
2019-01-02T06:03:36.735Z,1029.50
2019-01-02T06:04:36.736Z,1029.58
2019-01-02T06:05:36.729Z,1029.56
2019-01-02T06:06:36.721Z,1029.54
2019-01-02T06:07:36.685Z,1029.52
2019-01-02T06:08:36.713Z,1029.52
2019-01-02T06:09:36.817Z,1029.52
2019-01-02T06:10:36.692Z,1029.55
2019-01-02T06:11:36.667Z,1029.63
2019-01-02T06:12:36.694Z,1029.57
2019-01-02T06:13:36.611Z,1029.62
2019-01-02T06:14:36.602Z,1029.59
2019-01-02T06:15:36.622Z,1029.64
2019-01-02T06:16:36.613Z,1029.63
2019-01-02T06:17:36.601Z,1029.60
2019-01-02T06:18:36.600Z,1029.64
2019-01-02T06:19:36.554Z,1029.73
2019-01-02T06:20:36.567Z,1029.73
2019-01-02T06:21:36.529Z,1029.75
2019-01-02T06:22:36.518Z,1029.74
2019-01-02T06:23:36.518Z,1029.75
2019-01-02T06:24:36.497Z,1029.75
2019-01-02T06:25:36.519Z,1029.77
2019-01-02T06:26:36.512Z,1029.76
2019-01-02T06:27:36.465Z,1029.84
2019-01-02T06:28:36.577Z,1029.80
2019-01-02T06:29:36.461Z,1029.80
2019-01-02T06:30:36.423Z,1029.79
2019-01-02T06:31:36.420Z,1029.82
2019-01-02T06:32:36.407Z,1029.82
2019-01-02T06:33:36.432Z,1029.82
2019-01-02T06:34:36.421Z,1029.78
2019-01-02T06:35:36.376Z,1029.74
2019-01-02T06:36:36.367Z,1029.83
2019-01-02T06:37:36.349Z,1029.85
2019-01-02T06:38:36.354Z,1029.87
2019-01-02T06:39:36.363Z,1029.94
2019-01-02T06:40:36.332Z,1029.92
2019-01-02T06:41:36.320Z,1029.92
2019-01-02T06:42:36.310Z,1029.89
2019-01-02T06:43:36.302Z,1029.88
2019-01-02T06:44:36.422Z,1029.92
2019-01-02T06:45:36.303Z,1029.86
2019-01-02T06:46:36.259Z,1029.89
2019-01-02T06:47:36.270Z,1029.95
2019-01-02T06:48:36.235Z,1029.88
2019-01-02T06:49:36.216Z,1029.91
2019-01-02T06:50:36.243Z,1029.94
2019-01-02T06:51:36.202Z,1029.93
2019-01-02T06:52:36.195Z,1029.88
2019-01-02T06:53:36.205Z,1029.88
2019-01-02T06:54:36.175Z,1029.90
2019-01-02T06:55:36.161Z,1029.95
2019-01-02T06:56:36.182Z,1029.92
2019-01-02T06:57:36.136Z,1029.92
2019-01-02T06:58:36.122Z,1029.89
2019-01-02T06:59:36.129Z,1029.95
2019-01-02T07:00:36.104Z,1029.99
2019-01-02T07:01:36.091Z,1029.97
2019-01-02T07:02:36.118Z,1030.08
2019-01-02T07:03:36.073Z,1030.11
2019-01-02T07:04:36.061Z,1030.20
2019-01-02T07:05:36.126Z,1030.28
2019-01-02T07:06:36.044Z,1030.13
2019-01-02T07:07:36.075Z,1030.20
2019-01-02T07:08:36.093Z,1030.20
2019-01-02T07:09:36.028Z,1030.26
2019-01-02T07:10:36.000Z,1030.25
2019-01-02T07:11:35.981Z,1030.26
2019-01-02T07:12:36.015Z,1030.33
2019-01-02T07:13:35.990Z,1030.25
2019-01-02T07:14:35.950Z,1030.29
2019-01-02T07:15:35.949Z,1030.37
2019-01-02T07:16:35.951Z,1030.34
2019-01-02T07:17:35.964Z,1030.34
2019-01-02T07:18:35.926Z,1030.32
2019-01-02T07:19:35.897Z,1030.41
2019-01-02T07:20:35.906Z,1030.34
2019-01-02T07:21:35.875Z,1030.31
2019-01-02T07:22:35.862Z,1030.31
2019-01-02T07:23:35.886Z,1030.35
2019-01-02T07:24:35.948Z,1030.33
2019-01-02T07:25:35.862Z,1030.41
2019-01-02T07:26:35.821Z,1030.41
2019-01-02T07:27:35.831Z,1030.37
2019-01-02T07:28:35.798Z,1030.42
2019-01-02T07:29:35.856Z,1030.44
2019-01-02T07:30:35.787Z,1030.47
2019-01-02T07:31:35.761Z,1030.46
2019-01-02T07:32:35.769Z,1030.49
2019-01-02T07:33:35.750Z,1030.58
2019-01-02T07:34:35.779Z,1030.50
2019-01-02T07:35:35.720Z,1030.50
2019-01-02T07:36:35.733Z,1030.51
2019-01-02T07:37:35.731Z,1030.52
2019-01-02T07:38:35.717Z,1030.58
2019-01-02T07:39:35.677Z,1030.62
2019-01-02T07:40:35.771Z,1030.61
2019-01-02T07:41:35.658Z,1030.65
2019-01-02T07:42:35.678Z,1030.62
2019-01-02T07:43:36.531Z,1030.65
2019-01-02T07:44:35.621Z,1030.70
2019-01-02T07:45:35.827Z,1030.69
2019-01-02T07:46:35.620Z,1030.63
2019-01-02T07:47:35.600Z,1030.69
2019-01-02T07:48:35.611Z,1030.72
2019-01-02T07:49:35.594Z,1030.71
2019-01-02T07:50:35.559Z,1030.69
2019-01-02T07:51:35.571Z,1030.68
2019-01-02T07:52:35.565Z,1030.60
2019-01-02T07:53:35.542Z,1030.70
2019-01-02T07:54:35.521Z,1030.73
2019-01-02T07:55:35.535Z,1030.72
2019-01-02T07:56:35.504Z,1030.70
2019-01-02T07:57:35.540Z,1030.78
2019-01-02T07:58:35.473Z,1030.74
2019-01-02T07:59:35.504Z,1030.69
2019-01-02T08:00:35.460Z,1030.79
2019-01-02T08:01:35.560Z,1030.80
2019-01-02T08:02:35.452Z,1030.75
2019-01-02T08:03:35.416Z,1030.77
2019-01-02T08:04:35.442Z,1030.68
2019-01-02T08:05:35.440Z,1030.85
2019-01-02T08:06:35.396Z,1030.88
2019-01-02T08:07:35.409Z,1030.77
2019-01-02T08:08:35.374Z,1030.74
2019-01-02T08:09:35.349Z,1030.83
2019-01-02T08:10:35.351Z,1030.79
2019-01-02T08:11:35.359Z,1030.84
2019-01-02T08:12:35.347Z,1030.89
2019-01-02T08:13:35.322Z,1030.89
2019-01-02T08:14:35.360Z,1030.85
2019-01-02T08:15:35.323Z,1030.80
2019-01-02T08:16:35.303Z,1030.94
2019-01-02T08:17:35.368Z,1030.79
2019-01-02T08:18:35.267Z,1030.90
2019-01-02T08:19:35.271Z,1030.86
2019-01-02T08:20:35.336Z,1030.95
2019-01-02T08:21:35.260Z,1030.88
2019-01-02T08:22:35.216Z,1030.91
2019-01-02T08:23:35.217Z,1030.97
2019-01-02T08:24:35.194Z,1030.93
2019-01-02T08:25:35.190Z,1030.98
2019-01-02T08:26:35.204Z,1030.98
2019-01-02T08:27:35.191Z,1030.98
2019-01-02T08:28:35.151Z,1030.96
2019-01-02T08:29:35.176Z,1030.96
2019-01-02T08:30:35.132Z,1030.92
2019-01-02T08:31:35.130Z,1030.91
2019-01-02T08:32:35.121Z,1030.84
2019-01-02T08:33:35.098Z,1030.91
2019-01-02T08:34:35.132Z,1030.91
2019-01-02T08:35:35.108Z,1030.96
2019-01-02T08:36:35.062Z,1030.95
2019-01-02T08:37:35.047Z,1031.05
2019-01-02T08:38:35.055Z,1030.98
2019-01-02T08:39:35.061Z,1030.95
2019-01-02T08:40:35.015Z,1031.08
2019-01-02T08:41:35.150Z,1031.03
2019-01-02T08:42:35.006Z,1031.11
2019-01-02T08:43:34.985Z,1031.15
2019-01-02T08:44:35.019Z,1031.05
2019-01-02T08:45:35.013Z,1031.05
2019-01-02T08:46:34.953Z,1031.08
2019-01-02T08:47:34.943Z,1031.17
2019-01-02T08:48:34.936Z,1031.07
2019-01-02T08:49:34.912Z,1031.12
2019-01-02T08:50:34.940Z,1031.06
2019-01-02T08:51:34.917Z,1031.09
2019-01-02T08:52:34.886Z,1031.15
2019-01-02T08:53:34.874Z,1031.18
2019-01-02T08:54:34.869Z,1031.24
2019-01-02T08:55:34.856Z,1031.27
2019-01-02T08:56:34.922Z,1031.33
2019-01-02T08:57:35.699Z,1031.30
2019-01-02T08:58:34.819Z,1031.25
2019-01-02T08:59:34.818Z,1031.26
2019-01-02T09:00:34.887Z,1031.26
2019-01-02T09:01:34.821Z,1031.25
2019-01-02T09:02:34.822Z,1031.31
2019-01-02T09:03:34.767Z,1031.24
2019-01-02T09:04:34.818Z,1031.22
2019-01-02T09:05:34.740Z,1031.38
2019-01-02T09:06:34.730Z,1031.24
2019-01-02T09:07:34.736Z,1031.26
2019-01-02T09:08:34.741Z,1031.34
2019-01-02T09:09:34.706Z,1031.29
2019-01-02T09:10:34.698Z,1031.36
2019-01-02T09:11:34.683Z,1031.33
2019-01-02T09:12:34.671Z,1031.32
2019-01-02T09:13:34.782Z,1031.34
2019-01-02T09:14:34.652Z,1031.36
2019-01-02T09:15:34.653Z,1031.37
2019-01-02T09:16:34.745Z,1031.39
2019-01-02T09:17:34.623Z,1031.39
2019-01-02T09:18:34.607Z,1031.37
2019-01-02T09:19:34.625Z,1031.41
2019-01-02T09:20:34.601Z,1031.36
2019-01-02T09:21:34.585Z,1031.33
2019-01-02T09:22:34.584Z,1031.42
2019-01-02T09:23:34.558Z,1031.39
2019-01-02T09:24:34.582Z,1031.39
2019-01-02T09:25:34.543Z,1031.41
2019-01-02T09:26:34.522Z,1031.39
2019-01-02T09:27:34.532Z,1031.45
2019-01-02T09:28:34.494Z,1031.43
2019-01-02T09:29:34.485Z,1031.47
2019-01-02T09:30:34.496Z,1031.39
2019-01-02T09:31:34.462Z,1031.44
2019-01-02T09:32:34.462Z,1031.47
2019-01-02T09:33:34.455Z,1031.52
2019-01-02T09:34:34.450Z,1031.53
2019-01-02T09:35:34.475Z,1031.59
2019-01-02T09:36:34.420Z,1031.55
2019-01-02T09:37:34.520Z,1031.65
2019-01-02T09:38:34.402Z,1031.65
2019-01-02T09:39:34.427Z,1031.67
2019-01-02T09:40:34.499Z,1031.63
2019-01-02T09:41:34.412Z,1031.64
2019-01-02T09:42:34.343Z,1031.68
2019-01-02T09:43:34.349Z,1031.66
2019-01-02T09:44:34.349Z,1031.66
2019-01-02T09:45:34.337Z,1031.63
2019-01-02T09:46:34.415Z,1031.67
2019-01-02T09:47:34.286Z,1031.63
2019-01-02T09:48:34.277Z,1031.79
2019-01-02T09:49:34.297Z,1031.65
2019-01-02T09:50:34.271Z,1031.72
2019-01-02T09:51:34.247Z,1031.73
2019-01-02T09:52:34.267Z,1031.76
2019-01-02T09:53:34.230Z,1031.70
2019-01-02T09:54:34.239Z,1031.73
2019-01-02T09:55:34.200Z,1031.69
2019-01-02T09:56:34.353Z,1031.74
2019-01-02T09:57:34.194Z,1031.68
2019-01-02T09:58:34.167Z,1031.67
2019-01-02T09:59:34.163Z,1031.71
2019-01-02T10:00:34.157Z,1031.66
2019-01-02T10:01:34.132Z,1031.69
2019-01-02T10:02:34.197Z,1031.66
2019-01-02T10:03:34.122Z,1031.67
2019-01-02T10:04:34.107Z,1031.68
2019-01-02T10:05:34.105Z,1031.71
2019-01-02T10:06:34.114Z,1031.73
2019-01-02T10:07:34.101Z,1031.70
2019-01-02T10:08:34.089Z,1031.71
2019-01-02T10:09:34.081Z,1031.85
2019-01-02T10:10:34.038Z,1031.79
2019-01-02T10:11:34.051Z,1031.83
2019-01-02T10:12:34.015Z,1031.78
2019-01-02T10:13:34.019Z,1031.77
2019-01-02T10:14:34.028Z,1031.75
2019-01-02T10:15:33.985Z,1031.81
2019-01-02T10:16:33.971Z,1031.75
2019-01-02T10:17:34.023Z,1031.75
2019-01-02T10:18:33.959Z,1031.80
2019-01-02T10:19:33.948Z,1031.84
2019-01-02T10:20:33.960Z,1031.77
2019-01-02T10:21:33.947Z,1031.73
2019-01-02T10:22:33.939Z,1031.76
2019-01-02T10:23:33.904Z,1031.70
2019-01-02T10:24:33.911Z,1031.73
2019-01-02T10:25:33.897Z,1031.76
2019-01-02T10:26:33.898Z,1031.69
2019-01-02T10:27:33.863Z,1031.70
2019-01-02T10:28:33.853Z,1031.74
2019-01-02T10:29:33.898Z,1031.57
2019-01-02T10:30:33.821Z,1031.60
2019-01-02T10:31:33.815Z,1031.63
2019-01-02T10:32:33.829Z,1031.58
2019-01-02T10:33:33.794Z,1031.61
2019-01-02T10:34:33.818Z,1031.64
2019-01-02T10:35:33.775Z,1031.63
2019-01-02T10:36:33.892Z,1031.67
2019-01-02T10:37:33.746Z,1031.63
2019-01-02T10:38:33.759Z,1031.67
2019-01-02T10:39:33.735Z,1031.63
2019-01-02T10:40:33.764Z,1031.65
2019-01-02T10:41:33.701Z,1031.70
2019-01-02T10:42:33.738Z,1031.75
2019-01-02T10:43:33.672Z,1031.71
2019-01-02T10:44:33.660Z,1031.73
2019-01-02T10:45:33.740Z,1031.66
2019-01-02T10:46:33.672Z,1031.76
2019-01-02T10:47:33.745Z,1031.74
2019-01-02T10:48:33.614Z,1031.73
2019-01-02T10:49:33.636Z,1031.70
2019-01-02T10:50:33.596Z,1031.69
2019-01-02T10:51:33.596Z,1031.75
2019-01-02T10:52:33.652Z,1031.74
2019-01-02T10:53:33.561Z,1031.83
2019-01-02T10:54:33.561Z,1031.77
2019-01-02T10:55:33.542Z,1031.77
2019-01-02T10:56:33.530Z,1031.86
2019-01-02T10:57:33.567Z,1031.85
2019-01-02T10:58:36.669Z,1031.81
2019-01-02T10:59:33.496Z,1031.88
2019-01-02T11:00:33.626Z,1031.86
2019-01-02T11:01:33.478Z,1031.86
2019-01-02T11:02:33.488Z,1031.85
2019-01-02T11:03:33.486Z,1031.82
2019-01-02T11:04:33.440Z,1031.87
2019-01-02T11:05:33.499Z,1031.90
2019-01-02T11:06:33.420Z,1031.87
2019-01-02T11:07:33.441Z,1031.83
2019-01-02T11:08:33.403Z,1031.84
2019-01-02T11:09:33.400Z,1031.82
2019-01-02T11:10:33.484Z,1031.86
2019-01-02T11:11:33.377Z,1031.84
2019-01-02T11:12:33.358Z,1031.86
2019-01-02T11:13:33.337Z,1031.73
2019-01-02T11:14:33.336Z,1031.71
2019-01-02T11:15:33.376Z,1031.80
2019-01-02T11:16:33.528Z,1031.77
2019-01-02T11:17:33.300Z,1031.76
2019-01-02T11:18:33.292Z,1031.80
2019-01-02T11:19:33.382Z,1031.79
2019-01-02T11:20:33.299Z,1031.75
2019-01-02T11:21:33.259Z,1031.78
2019-01-02T11:22:33.288Z,1031.75
2019-01-02T11:23:33.231Z,1031.76
2019-01-02T11:24:33.227Z,1031.68
2019-01-02T11:25:33.213Z,1031.74
2019-01-02T11:26:33.201Z,1031.73
2019-01-02T11:27:34.630Z,1031.76
2019-01-02T11:28:33.180Z,1031.77
2019-01-02T11:29:33.200Z,1031.83
2019-01-02T11:30:33.158Z,1031.76
2019-01-02T11:31:33.150Z,1031.83
2019-01-02T11:32:33.137Z,1031.82
2019-01-02T11:33:33.121Z,1031.80
2019-01-02T11:34:33.175Z,1031.67
2019-01-02T11:35:33.149Z,1031.74
2019-01-02T11:36:33.100Z,1031.70
2019-01-02T11:37:33.077Z,1031.68
2019-01-02T11:38:33.069Z,1031.71
2019-01-02T11:39:33.088Z,1031.69
2019-01-02T11:40:33.047Z,1031.64
2019-01-02T11:41:33.056Z,1031.64
2019-01-02T11:42:33.020Z,1031.66
2019-01-02T11:43:33.026Z,1031.58
2019-01-02T11:44:33.001Z,1031.59
2019-01-02T11:45:32.987Z,1031.59
2019-01-02T11:46:33.039Z,1031.62
2019-01-02T11:47:32.971Z,1031.65
2019-01-02T11:48:32.957Z,1031.72
2019-01-02T11:49:32.944Z,1031.71
2019-01-02T11:50:32.958Z,1031.65
2019-01-02T11:51:32.924Z,1031.64
2019-01-02T11:52:32.917Z,1031.67
2019-01-02T11:53:32.948Z,1031.68
2019-01-02T11:54:32.880Z,1031.69
2019-01-02T11:55:32.875Z,1031.66
2019-01-02T11:56:32.878Z,1031.61
2019-01-02T11:57:32.859Z,1031.59
2019-01-02T11:58:33.722Z,1031.57
2019-01-02T11:59:32.884Z,1031.63
2019-01-02T12:00:32.822Z,1031.60
2019-01-02T12:01:32.867Z,1031.72
2019-01-02T12:02:34.315Z,1031.65
2019-01-02T12:03:32.828Z,1031.52
2019-01-02T12:04:32.797Z,1031.58
2019-01-02T12:05:32.788Z,1031.62